sensor_id;sensor_type;location;lat;lon;timestamp;P1;durP1;ratioP1;P2;durP2;ratioP2
77191;SDS011;66172;48.526;8.078;2024-01-06T00:02:01;10.33;;;4.13;;
77191;SDS011;66172;48.526;8.078;2024-01-06T00:04:27;10.48;;;4.00;;
77191;SDS011;66172;48.526;8.078;2024-01-06T00:06:54;8.63;;;3.45;;
77191;SDS011;66172;48.526;8.078;2024-01-06T00:09:20;11.43;;;4.35;;
77191;SDS011;66172;48.526;8.078;2024-01-06T00:11:46;10.57;;;4.40;;
77191;SDS011;66172;48.526;8.078;2024-01-06T00:14:11;11.00;;;4.05;;
77191;SDS011;66172;48.526;8.078;2024-01-06T00:16:37;9.10;;;3.80;;
77191;SDS011;66172;48.526;8.078;2024-01-06T00:19:03;8.27;;;3.87;;
77191;SDS011;66172;48.526;8.078;2024-01-06T00:21:29;9.93;;;4.00;;
77191;SDS011;66172;48.526;8.078;2024-01-06T00:23:55;9.10;;;3.10;;
77191;SDS011;66172;48.526;8.078;2024-01-06T00:26:21;8.63;;;3.65;;
77191;SDS011;66172;48.526;8.078;2024-01-06T00:28:47;9.07;;;4.10;;
77191;SDS011;66172;48.526;8.078;2024-01-06T00:31:15;8.43;;;3.63;;
77191;SDS011;66172;48.526;8.078;2024-01-06T00:33:45;9.90;;;3.85;;
77191;SDS011;66172;48.526;8.078;2024-01-06T00:36:11;8.68;;;3.65;;
77191;SDS011;66172;48.526;8.078;2024-01-06T00:38:37;7.82;;;3.20;;
77191;SDS011;66172;48.526;8.078;2024-01-06T00:41:02;9.75;;;3.47;;
77191;SDS011;66172;48.526;8.078;2024-01-06T00:43:28;8.93;;;3.37;;
77191;SDS011;66172;48.526;8.078;2024-01-06T00:45:54;7.85;;;3.30;;
77191;SDS011;66172;48.526;8.078;2024-01-06T00:48:20;8.38;;;3.72;;
77191;SDS011;66172;48.526;8.078;2024-01-06T00:50:46;10.33;;;3.47;;
77191;SDS011;66172;48.526;8.078;2024-01-06T00:53:12;8.77;;;4.07;;
77191;SDS011;66172;48.526;8.078;2024-01-06T00:55:38;11.02;;;3.38;;
77191;SDS011;66172;48.526;8.078;2024-01-06T00:58:04;8.00;;;3.13;;
77191;SDS011;66172;48.526;8.078;2024-01-06T01:00:30;8.43;;;3.20;;
77191;SDS011;66172;48.526;8.078;2024-01-06T01:02:56;7.13;;;2.90;;
77191;SDS011;66172;48.526;8.078;2024-01-06T01:05:22;8.95;;;3.30;;
77191;SDS011;66172;48.526;8.078;2024-01-06T01:07:48;8.60;;;3.35;;
77191;SDS011;66172;48.526;8.078;2024-01-06T01:10:14;11.43;;;3.73;;
77191;SDS011;66172;48.526;8.078;2024-01-06T01:12:40;8.35;;;2.90;;
77191;SDS011;66172;48.526;8.078;2024-01-06T01:15:06;6.32;;;2.55;;
77191;SDS011;66172;48.526;8.078;2024-01-06T01:17:32;7.68;;;2.20;;
77191;SDS011;66172;48.526;8.078;2024-01-06T01:19:58;6.30;;;1.57;;
77191;SDS011;66172;48.526;8.078;2024-01-06T01:22:24;7.80;;;2.20;;
77191;SDS011;66172;48.526;8.078;2024-01-06T01:24:50;5.70;;;2.10;;
77191;SDS011;66172;48.526;8.078;2024-01-06T01:27:16;6.43;;;1.77;;
77191;SDS011;66172;48.526;8.078;2024-01-06T01:29:42;7.43;;;2.05;;
77191;SDS011;66172;48.526;8.078;2024-01-06T01:32:07;8.15;;;1.80;;
77191;SDS011;66172;48.526;8.078;2024-01-06T01:34:33;7.07;;;2.17;;
77191;SDS011;66172;48.526;8.078;2024-01-06T01:37:00;10.05;;;2.00;;
77191;SDS011;66172;48.526;8.078;2024-01-06T01:39:25;6.15;;;2.05;;
77191;SDS011;66172;48.526;8.078;2024-01-06T01:41:51;8.75;;;1.85;;
77191;SDS011;66172;48.526;8.078;2024-01-06T01:44:17;6.77;;;1.80;;
77191;SDS011;66172;48.526;8.078;2024-01-06T01:46:43;6.18;;;2.20;;
77191;SDS011;66172;48.526;8.078;2024-01-06T01:49:09;9.48;;;2.50;;
77191;SDS011;66172;48.526;8.078;2024-01-06T01:51:35;9.13;;;2.50;;
77191;SDS011;66172;48.526;8.078;2024-01-06T01:54:02;8.73;;;2.20;;
77191;SDS011;66172;48.526;8.078;2024-01-06T01:56:31;7.27;;;2.00;;
77191;SDS011;66172;48.526;8.078;2024-01-06T01:59:05;7.53;;;2.03;;
77191;SDS011;66172;48.526;8.078;2024-01-06T02:01:32;9.23;;;1.90;;
77191;SDS011;66172;48.526;8.078;2024-01-06T02:03:58;6.85;;;1.92;;
77191;SDS011;66172;48.526;8.078;2024-01-06T02:06:24;6.33;;;1.70;;
77191;SDS011;66172;48.526;8.078;2024-01-06T02:08:50;8.30;;;1.95;;
77191;SDS011;66172;48.526;8.078;2024-01-06T02:11:16;5.95;;;1.55;;
77191;SDS011;66172;48.526;8.078;2024-01-06T02:13:42;7.28;;;1.90;;
77191;SDS011;66172;48.526;8.078;2024-01-06T02:16:08;6.67;;;1.73;;
77191;SDS011;66172;48.526;8.078;2024-01-06T02:18:34;7.30;;;1.90;;
77191;SDS011;66172;48.526;8.078;2024-01-06T02:21:01;7.05;;;1.90;;
77191;SDS011;66172;48.526;8.078;2024-01-06T02:23:28;6.90;;;1.83;;
77191;SDS011;66172;48.526;8.078;2024-01-06T02:25:55;6.80;;;1.50;;
77191;SDS011;66172;48.526;8.078;2024-01-06T02:28:21;7.85;;;1.80;;
77191;SDS011;66172;48.526;8.078;2024-01-06T02:30:47;8.85;;;1.60;;
77191;SDS011;66172;48.526;8.078;2024-01-06T02:33:15;9.07;;;1.70;;
77191;SDS011;66172;48.526;8.078;2024-01-06T02:35:40;8.50;;;1.77;;
77191;SDS011;66172;48.526;8.078;2024-01-06T02:38:06;8.00;;;1.80;;
77191;SDS011;66172;48.526;8.078;2024-01-06T02:40:34;7.60;;;1.65;;
77191;SDS011;66172;48.526;8.078;2024-01-06T02:42:59;9.90;;;1.67;;
77191;SDS011;66172;48.526;8.078;2024-01-06T02:45:25;7.07;;;1.70;;
77191;SDS011;66172;48.526;8.078;2024-01-06T02:47:51;6.47;;;1.55;;
77191;SDS011;66172;48.526;8.078;2024-01-06T02:50:17;6.35;;;1.70;;
77191;SDS011;66172;48.526;8.078;2024-01-06T02:52:43;6.97;;;1.77;;
77191;SDS011;66172;48.526;8.078;2024-01-06T02:55:09;5.37;;;1.30;;
77191;SDS011;66172;48.526;8.078;2024-01-06T02:57:36;4.95;;;1.15;;
77191;SDS011;66172;48.526;8.078;2024-01-06T03:00:02;5.90;;;1.40;;
77191;SDS011;66172;48.526;8.078;2024-01-06T03:02:29;5.88;;;1.50;;
77191;SDS011;66172;48.526;8.078;2024-01-06T03:04:54;6.90;;;1.60;;
77191;SDS011;66172;48.526;8.078;2024-01-06T03:07:20;7.63;;;1.42;;
77191;SDS011;66172;48.526;8.078;2024-01-06T03:09:46;7.28;;;1.40;;
77191;SDS011;66172;48.526;8.078;2024-01-06T03:12:12;7.20;;;1.35;;
77191;SDS011;66172;48.526;8.078;2024-01-06T03:14:38;6.40;;;1.50;;
77191;SDS011;66172;48.526;8.078;2024-01-06T03:17:04;7.57;;;1.40;;
77191;SDS011;66172;48.526;8.078;2024-01-06T03:19:30;5.65;;;1.30;;
77191;SDS011;66172;48.526;8.078;2024-01-06T03:21:56;6.50;;;1.50;;
77191;SDS011;66172;48.526;8.078;2024-01-06T03:24:23;7.87;;;1.40;;
77191;SDS011;66172;48.526;8.078;2024-01-06T03:26:50;7.05;;;1.75;;
77191;SDS011;66172;48.526;8.078;2024-01-06T03:29:16;6.60;;;1.65;;
77191;SDS011;66172;48.526;8.078;2024-01-06T03:31:42;6.00;;;1.63;;
77191;SDS011;66172;48.526;8.078;2024-01-06T03:34:09;5.00;;;1.40;;
77191;SDS011;66172;48.526;8.078;2024-01-06T03:36:37;7.57;;;1.80;;
77191;SDS011;66172;48.526;8.078;2024-01-06T03:39:03;7.28;;;2.00;;
77191;SDS011;66172;48.526;8.078;2024-01-06T03:41:30;5.68;;;1.55;;
77191;SDS011;66172;48.526;8.078;2024-01-06T03:43:55;5.80;;;1.40;;
77191;SDS011;66172;48.526;8.078;2024-01-06T03:46:22;6.95;;;1.38;;
77191;SDS011;66172;48.526;8.078;2024-01-06T03:48:48;6.78;;;1.50;;
77191;SDS011;66172;48.526;8.078;2024-01-06T03:51:14;8.05;;;1.60;;
77191;SDS011;66172;48.526;8.078;2024-01-06T03:53:40;5.80;;;1.40;;
77191;SDS011;66172;48.526;8.078;2024-01-06T03:56:06;7.20;;;1.40;;
77191;SDS011;66172;48.526;8.078;2024-01-06T03:58:32;5.10;;;1.20;;
77191;SDS011;66172;48.526;8.078;2024-01-06T04:00:58;6.43;;;1.00;;
77191;SDS011;66172;48.526;8.078;2024-01-06T04:03:24;7.17;;;1.13;;
77191;SDS011;66172;48.526;8.078;2024-01-06T04:05:50;5.30;;;1.20;;
77191;SDS011;66172;48.526;8.078;2024-01-06T04:08:16;6.88;;;1.60;;
77191;SDS011;66172;48.526;8.078;2024-01-06T04:10:43;8.48;;;1.40;;
77191;SDS011;66172;48.526;8.078;2024-01-06T04:13:10;5.87;;;1.43;;
77191;SDS011;66172;48.526;8.078;2024-01-06T04:15:38;7.53;;;1.90;;
77191;SDS011;66172;48.526;8.078;2024-01-06T04:18:04;5.75;;;1.58;;
77191;SDS011;66172;48.526;8.078;2024-01-06T04:20:31;5.35;;;1.48;;
77191;SDS011;66172;48.526;8.078;2024-01-06T04:22:57;5.63;;;1.40;;
77191;SDS011;66172;48.526;8.078;2024-01-06T04:25:24;5.00;;;1.10;;
77191;SDS011;66172;48.526;8.078;2024-01-06T04:27:50;5.80;;;1.90;;
77191;SDS011;66172;48.526;8.078;2024-01-06T04:30:16;7.13;;;2.10;;
77191;SDS011;66172;48.526;8.078;2024-01-06T04:32:42;6.63;;;1.52;;
77191;SDS011;66172;48.526;8.078;2024-01-06T04:35:08;5.87;;;1.53;;
77191;SDS011;66172;48.526;8.078;2024-01-06T04:37:35;6.72;;;1.85;;
77191;SDS011;66172;48.526;8.078;2024-01-06T04:40:01;6.38;;;1.58;;
77191;SDS011;66172;48.526;8.078;2024-01-06T04:42:28;7.72;;;1.90;;
77191;SDS011;66172;48.526;8.078;2024-01-06T04:44:54;7.57;;;2.13;;
77191;SDS011;66172;48.526;8.078;2024-01-06T04:47:20;7.53;;;1.97;;
77191;SDS011;66172;48.526;8.078;2024-01-06T04:49:45;7.03;;;1.52;;
77191;SDS011;66172;48.526;8.078;2024-01-06T04:52:11;8.43;;;1.30;;
77191;SDS011;66172;48.526;8.078;2024-01-06T04:54:37;7.50;;;1.53;;
77191;SDS011;66172;48.526;8.078;2024-01-06T04:57:03;6.22;;;1.15;;
77191;SDS011;66172;48.526;8.078;2024-01-06T04:59:30;6.43;;;1.30;;
77191;SDS011;66172;48.526;8.078;2024-01-06T05:01:57;5.63;;;1.55;;
77191;SDS011;66172;48.526;8.078;2024-01-06T05:04:24;7.10;;;2.53;;
77191;SDS011;66172;48.526;8.078;2024-01-06T05:06:53;6.53;;;2.10;;
77191;SDS011;66172;48.526;8.078;2024-01-06T05:09:19;7.72;;;2.28;;
77191;SDS011;66172;48.526;8.078;2024-01-06T05:11:46;8.32;;;2.22;;
77191;SDS011;66172;48.526;8.078;2024-01-06T05:14:12;8.50;;;1.90;;
77191;SDS011;66172;48.526;8.078;2024-01-06T05:16:37;4.60;;;1.37;;
77191;SDS011;66172;48.526;8.078;2024-01-06T05:19:03;8.30;;;1.50;;
77191;SDS011;66172;48.526;8.078;2024-01-06T05:21:30;4.65;;;1.10;;
77191;SDS011;66172;48.526;8.078;2024-01-06T05:23:56;7.20;;;1.30;;
77191;SDS011;66172;48.526;8.078;2024-01-06T05:26:22;7.57;;;1.50;;
77191;SDS011;66172;48.526;8.078;2024-01-06T05:28:48;5.93;;;1.50;;
77191;SDS011;66172;48.526;8.078;2024-01-06T05:31:14;8.00;;;2.00;;
77191;SDS011;66172;48.526;8.078;2024-01-06T05:33:40;4.68;;;1.58;;
77191;SDS011;66172;48.526;8.078;2024-01-06T05:36:06;8.02;;;1.38;;
77191;SDS011;66172;48.526;8.078;2024-01-06T05:38:32;4.77;;;1.07;;
77191;SDS011;66172;48.526;8.078;2024-01-06T05:40:57;5.18;;;1.50;;
77191;SDS011;66172;48.526;8.078;2024-01-06T05:43:23;7.65;;;1.58;;
77191;SDS011;66172;48.526;8.078;2024-01-06T05:45:49;6.00;;;1.13;;
77191;SDS011;66172;48.526;8.078;2024-01-06T05:48:15;6.07;;;1.10;;
77191;SDS011;66172;48.526;8.078;2024-01-06T05:50:41;9.10;;;1.60;;
77191;SDS011;66172;48.526;8.078;2024-01-06T05:53:07;6.55;;;1.58;;
77191;SDS011;66172;48.526;8.078;2024-01-06T05:55:33;4.67;;;1.20;;
77191;SDS011;66172;48.526;8.078;2024-01-06T05:57:59;6.30;;;1.33;;
77191;SDS011;66172;48.526;8.078;2024-01-06T06:00:26;4.10;;;0.93;;
77191;SDS011;66172;48.526;8.078;2024-01-06T06:02:52;6.80;;;1.23;;
77191;SDS011;66172;48.526;8.078;2024-01-06T06:05:18;4.13;;;0.95;;
77191;SDS011;66172;48.526;8.078;2024-01-06T06:07:45;6.07;;;0.97;;
77191;SDS011;66172;48.526;8.078;2024-01-06T06:10:11;5.65;;;1.00;;
77191;SDS011;66172;48.526;8.078;2024-01-06T06:12:37;7.82;;;1.00;;
77191;SDS011;66172;48.526;8.078;2024-01-06T06:15:04;4.18;;;1.10;;
77191;SDS011;66172;48.526;8.078;2024-01-06T06:17:32;7.20;;;1.33;;
77191;SDS011;66172;48.526;8.078;2024-01-06T06:19:58;8.80;;;1.20;;
77191;SDS011;66172;48.526;8.078;2024-01-06T06:22:25;6.88;;;0.88;;
77191;SDS011;66172;48.526;8.078;2024-01-06T06:24:58;6.50;;;1.15;;
77191;SDS011;66172;48.526;8.078;2024-01-06T06:27:25;9.63;;;2.10;;
77191;SDS011;66172;48.526;8.078;2024-01-06T06:29:52;5.82;;;1.83;;
77191;SDS011;66172;48.526;8.078;2024-01-06T06:32:18;8.47;;;1.70;;
77191;SDS011;66172;48.526;8.078;2024-01-06T06:34:44;5.00;;;1.45;;
77191;SDS011;66172;48.526;8.078;2024-01-06T06:37:09;8.82;;;2.33;;
77191;SDS011;66172;48.526;8.078;2024-01-06T06:39:35;8.30;;;2.03;;
77191;SDS011;66172;48.526;8.078;2024-01-06T06:42:02;7.33;;;1.40;;
77191;SDS011;66172;48.526;8.078;2024-01-06T06:44:28;7.07;;;1.30;;
77191;SDS011;66172;48.526;8.078;2024-01-06T06:46:55;7.95;;;1.42;;
77191;SDS011;66172;48.526;8.078;2024-01-06T06:49:21;5.90;;;1.20;;
77191;SDS011;66172;48.526;8.078;2024-01-06T06:51:47;8.00;;;1.53;;
77191;SDS011;66172;48.526;8.078;2024-01-06T06:54:14;7.00;;;1.87;;
77191;SDS011;66172;48.526;8.078;2024-01-06T06:56:41;6.13;;;1.80;;
77191;SDS011;66172;48.526;8.078;2024-01-06T06:59:07;6.07;;;1.65;;
77191;SDS011;66172;48.526;8.078;2024-01-06T07:01:33;8.93;;;2.40;;
77191;SDS011;66172;48.526;8.078;2024-01-06T07:03:59;7.90;;;2.57;;
77191;SDS011;66172;48.526;8.078;2024-01-06T07:06:25;9.52;;;2.80;;
77191;SDS011;66172;48.526;8.078;2024-01-06T07:08:51;8.80;;;2.30;;
77191;SDS011;66172;48.526;8.078;2024-01-06T07:11:17;7.33;;;2.00;;
77191;SDS011;66172;48.526;8.078;2024-01-06T07:13:44;9.07;;;2.03;;
77191;SDS011;66172;48.526;8.078;2024-01-06T07:16:10;8.73;;;2.42;;
77191;SDS011;66172;48.526;8.078;2024-01-06T07:18:37;10.20;;;2.33;;
77191;SDS011;66172;48.526;8.078;2024-01-06T07:21:06;10.73;;;2.58;;
77191;SDS011;66172;48.526;8.078;2024-01-06T07:23:32;9.53;;;2.60;;
77191;SDS011;66172;48.526;8.078;2024-01-06T07:25:58;9.38;;;2.20;;
77191;SDS011;66172;48.526;8.078;2024-01-06T07:28:24;7.50;;;2.00;;
77191;SDS011;66172;48.526;8.078;2024-01-06T07:30:50;10.48;;;2.88;;
77191;SDS011;66172;48.526;8.078;2024-01-06T07:33:16;10.37;;;2.53;;
77191;SDS011;66172;48.526;8.078;2024-01-06T07:35:42;8.75;;;2.25;;
77191;SDS011;66172;48.526;8.078;2024-01-06T07:38:09;7.47;;;2.33;;
77191;SDS011;66172;48.526;8.078;2024-01-06T07:40:38;8.27;;;2.33;;
77191;SDS011;66172;48.526;8.078;2024-01-06T07:43:04;8.98;;;2.90;;
77191;SDS011;66172;48.526;8.078;2024-01-06T07:45:30;10.40;;;2.63;;
77191;SDS011;66172;48.526;8.078;2024-01-06T07:47:57;9.27;;;3.00;;
77191;SDS011;66172;48.526;8.078;2024-01-06T07:50:24;8.30;;;2.65;;
77191;SDS011;66172;48.526;8.078;2024-01-06T07:52:50;12.02;;;2.90;;
77191;SDS011;66172;48.526;8.078;2024-01-06T07:55:16;8.67;;;1.90;;
77191;SDS011;66172;48.526;8.078;2024-01-06T07:57:42;10.57;;;1.60;;
77191;SDS011;66172;48.526;8.078;2024-01-06T08:00:09;10.32;;;2.10;;
77191;SDS011;66172;48.526;8.078;2024-01-06T08:02:36;9.82;;;3.33;;
77191;SDS011;66172;48.526;8.078;2024-01-06T08:05:02;10.93;;;3.33;;
77191;SDS011;66172;48.526;8.078;2024-01-06T08:07:28;10.50;;;3.43;;
77191;SDS011;66172;48.526;8.078;2024-01-06T08:09:54;11.60;;;3.35;;
77191;SDS011;66172;48.526;8.078;2024-01-06T08:12:19;10.60;;;3.03;;
77191;SDS011;66172;48.526;8.078;2024-01-06T08:14:45;9.13;;;2.63;;
77191;SDS011;66172;48.526;8.078;2024-01-06T08:17:11;10.68;;;3.15;;
77191;SDS011;66172;48.526;8.078;2024-01-06T08:19:37;12.32;;;3.50;;
77191;SDS011;66172;48.526;8.078;2024-01-06T08:22:03;10.05;;;3.28;;
77191;SDS011;66172;48.526;8.078;2024-01-06T08:24:29;7.60;;;2.80;;
77191;SDS011;66172;48.526;8.078;2024-01-06T08:26:55;10.70;;;3.03;;
77191;SDS011;66172;48.526;8.078;2024-01-06T08:29:21;9.35;;;3.28;;
77191;SDS011;66172;48.526;8.078;2024-01-06T08:31:47;10.03;;;3.27;;
77191;SDS011;66172;48.526;8.078;2024-01-06T08:34:13;11.90;;;3.53;;
77191;SDS011;66172;48.526;8.078;2024-01-06T08:36:38;9.38;;;3.65;;
77191;SDS011;66172;48.526;8.078;2024-01-06T08:39:06;11.18;;;3.63;;
77191;SDS011;66172;48.526;8.078;2024-01-06T08:41:33;8.13;;;3.20;;
77191;SDS011;66172;48.526;8.078;2024-01-06T08:44:00;8.10;;;3.20;;
77191;SDS011;66172;48.526;8.078;2024-01-06T08:46:26;10.02;;;3.45;;
77191;SDS011;66172;48.526;8.078;2024-01-06T08:48:51;9.25;;;3.40;;
77191;SDS011;66172;48.526;8.078;2024-01-06T08:51:17;9.13;;;3.27;;
77191;SDS011;66172;48.526;8.078;2024-01-06T08:53:46;9.60;;;3.40;;
77191;SDS011;66172;48.526;8.078;2024-01-06T08:56:11;9.77;;;3.85;;
77191;SDS011;66172;48.526;8.078;2024-01-06T08:58:37;10.45;;;3.53;;
77191;SDS011;66172;48.526;8.078;2024-01-06T09:01:03;9.47;;;3.33;;
77191;SDS011;66172;48.526;8.078;2024-01-06T09:03:29;9.77;;;3.60;;
77191;SDS011;66172;48.526;8.078;2024-01-06T09:05:55;9.15;;;4.00;;
77191;SDS011;66172;48.526;8.078;2024-01-06T09:08:23;12.13;;;4.20;;
77191;SDS011;66172;48.526;8.078;2024-01-06T09:10:49;9.27;;;3.47;;
77191;SDS011;66172;48.526;8.078;2024-01-06T09:13:21;14.02;;;4.88;;
77191;SDS011;66172;48.526;8.078;2024-01-06T09:15:47;10.80;;;4.57;;
77191;SDS011;66172;48.526;8.078;2024-01-06T09:18:13;17.52;;;9.50;;
77191;SDS011;66172;48.526;8.078;2024-01-06T09:20:39;17.60;;;7.63;;
77191;SDS011;66172;48.526;8.078;2024-01-06T09:23:05;22.55;;;9.50;;
77191;SDS011;66172;48.526;8.078;2024-01-06T09:25:30;17.73;;;8.18;;
77191;SDS011;66172;48.526;8.078;2024-01-06T09:27:56;17.95;;;6.70;;
77191;SDS011;66172;48.526;8.078;2024-01-06T09:30:24;11.97;;;4.60;;
77191;SDS011;66172;48.526;8.078;2024-01-06T09:32:50;12.30;;;4.32;;
77191;SDS011;66172;48.526;8.078;2024-01-06T09:35:16;8.77;;;4.00;;
77191;SDS011;66172;48.526;8.078;2024-01-06T09:37:42;11.27;;;4.57;;
77191;SDS011;66172;48.526;8.078;2024-01-06T09:40:10;12.40;;;4.07;;
77191;SDS011;66172;48.526;8.078;2024-01-06T09:42:37;11.45;;;3.70;;
77191;SDS011;66172;48.526;8.078;2024-01-06T09:45:03;8.32;;;3.10;;
77191;SDS011;66172;48.526;8.078;2024-01-06T09:47:30;9.88;;;3.80;;
77191;SDS011;66172;48.526;8.078;2024-01-06T09:50:00;13.00;;;6.43;;
77191;SDS011;66172;48.526;8.078;2024-01-06T09:52:28;9.43;;;4.88;;
77191;SDS011;66172;48.526;8.078;2024-01-06T09:54:58;12.88;;;5.07;;
77191;SDS011;66172;48.526;8.078;2024-01-06T09:57:25;12.55;;;4.88;;
77191;SDS011;66172;48.526;8.078;2024-01-06T09:59:52;19.88;;;9.15;;
77191;SDS011;66172;48.526;8.078;2024-01-06T10:02:18;13.77;;;6.60;;
77191;SDS011;66172;48.526;8.078;2024-01-06T10:04:46;11.45;;;5.03;;
77191;SDS011;66172;48.526;8.078;2024-01-06T10:07:12;9.80;;;3.28;;
77191;SDS011;66172;48.526;8.078;2024-01-06T10:09:42;7.65;;;3.40;;
77191;SDS011;66172;48.526;8.078;2024-01-06T10:12:08;16.30;;;6.18;;
77191;SDS011;66172;48.526;8.078;2024-01-06T10:14:35;12.70;;;5.27;;
77191;SDS011;66172;48.526;8.078;2024-01-06T10:17:01;11.35;;;5.82;;
77191;SDS011;66172;48.526;8.078;2024-01-06T10:19:27;10.88;;;4.00;;
77191;SDS011;66172;48.526;8.078;2024-01-06T10:21:54;11.93;;;5.38;;
77191;SDS011;66172;48.526;8.078;2024-01-06T10:24:20;8.05;;;3.08;;
77191;SDS011;66172;48.526;8.078;2024-01-06T10:26:46;6.90;;;2.97;;
77191;SDS011;66172;48.526;8.078;2024-01-06T10:29:15;10.07;;;4.18;;
77191;SDS011;66172;48.526;8.078;2024-01-06T10:31:41;8.32;;;3.53;;
77191;SDS011;66172;48.526;8.078;2024-01-06T10:34:06;13.00;;;5.93;;
77191;SDS011;66172;48.526;8.078;2024-01-06T10:36:32;9.82;;;4.25;;
77191;SDS011;66172;48.526;8.078;2024-01-06T10:38:58;8.32;;;2.80;;
77191;SDS011;66172;48.526;8.078;2024-01-06T10:41:24;9.60;;;2.92;;
77191;SDS011;66172;48.526;8.078;2024-01-06T10:43:51;6.27;;;2.33;;
77191;SDS011;66172;48.526;8.078;2024-01-06T10:46:20;7.82;;;2.20;;
77191;SDS011;66172;48.526;8.078;2024-01-06T10:48:48;7.90;;;2.63;;
77191;SDS011;66172;48.526;8.078;2024-01-06T10:51:15;7.82;;;2.20;;
77191;SDS011;66172;48.526;8.078;2024-01-06T10:53:42;7.80;;;2.85;;
77191;SDS011;66172;48.526;8.078;2024-01-06T10:56:09;7.57;;;2.60;;
77191;SDS011;66172;48.526;8.078;2024-01-06T10:58:43;7.53;;;2.75;;
77191;SDS011;66172;48.526;8.078;2024-01-06T11:01:12;6.30;;;2.58;;
77191;SDS011;66172;48.526;8.078;2024-01-06T11:03:39;7.15;;;2.42;;
77191;SDS011;66172;48.526;8.078;2024-01-06T11:06:06;12.87;;;4.87;;
77191;SDS011;66172;48.526;8.078;2024-01-06T11:08:57;12.32;;;4.10;;
77191;SDS011;66172;48.526;8.078;2024-01-06T11:11:32;11.30;;;4.47;;
77191;SDS011;66172;48.526;8.078;2024-01-06T11:14:17;10.95;;;4.10;;
77191;SDS011;66172;48.526;8.078;2024-01-06T11:16:53;11.75;;;4.07;;
77191;SDS011;66172;48.526;8.078;2024-01-06T11:19:44;9.20;;;3.40;;
77191;SDS011;66172;48.526;8.078;2024-01-06T11:22:30;7.70;;;2.75;;
77191;SDS011;66172;48.526;8.078;2024-01-06T11:25:08;6.13;;;2.65;;
77191;SDS011;66172;48.526;8.078;2024-01-06T11:27:38;7.93;;;2.20;;
77191;SDS011;66172;48.526;8.078;2024-01-06T11:30:07;10.43;;;3.72;;
77191;SDS011;66172;48.526;8.078;2024-01-06T11:32:34;7.87;;;3.17;;
77191;SDS011;66172;48.526;8.078;2024-01-06T11:35:13;11.10;;;3.65;;
77191;SDS011;66172;48.526;8.078;2024-01-06T11:42:47;22.40;;;8.60;;
77191;SDS011;66172;48.526;8.078;2024-01-06T11:45:14;12.05;;;4.93;;
77191;SDS011;66172;48.526;8.078;2024-01-06T11:47:40;47.25;;;21.48;;
77191;SDS011;66172;48.526;8.078;2024-01-06T11:50:13;28.10;;;10.73;;
77191;SDS011;66172;48.526;8.078;2024-01-06T11:52:39;25.33;;;9.48;;
77191;SDS011;66172;48.526;8.078;2024-01-06T11:55:05;16.90;;;6.23;;
77191;SDS011;66172;48.526;8.078;2024-01-06T11:57:31;13.20;;;5.80;;
77191;SDS011;66172;48.526;8.078;2024-01-06T11:59:56;8.50;;;3.35;;
77191;SDS011;66172;48.526;8.078;2024-01-06T12:02:22;8.13;;;3.70;;
77191;SDS011;66172;48.526;8.078;2024-01-06T12:04:49;7.85;;;3.30;;
77191;SDS011;66172;48.526;8.078;2024-01-06T12:07:19;8.38;;;3.20;;
77191;SDS011;66172;48.526;8.078;2024-01-06T12:09:48;19.17;;;6.35;;
77191;SDS011;66172;48.526;8.078;2024-01-06T12:12:17;17.88;;;6.30;;
77191;SDS011;66172;48.526;8.078;2024-01-06T12:14:44;10.70;;;4.20;;
77191;SDS011;66172;48.526;8.078;2024-01-06T12:17:11;7.47;;;3.67;;
77191;SDS011;66172;48.526;8.078;2024-01-06T12:19:39;9.80;;;3.97;;
77191;SDS011;66172;48.526;8.078;2024-01-06T12:22:07;8.95;;;3.60;;
77191;SDS011;66172;48.526;8.078;2024-01-06T12:24:35;8.13;;;3.40;;
77191;SDS011;66172;48.526;8.078;2024-01-06T12:27:01;9.90;;;4.03;;
77191;SDS011;66172;48.526;8.078;2024-01-06T12:29:28;7.90;;;3.58;;
77191;SDS011;66172;48.526;8.078;2024-01-06T12:31:54;9.82;;;4.07;;
77191;SDS011;66172;48.526;8.078;2024-01-06T12:34:21;8.57;;;3.20;;
77191;SDS011;66172;48.526;8.078;2024-01-06T12:36:47;8.48;;;3.65;;
77191;SDS011;66172;48.526;8.078;2024-01-06T12:39:13;7.53;;;3.43;;
77191;SDS011;66172;48.526;8.078;2024-01-06T12:41:40;8.73;;;3.90;;
77191;SDS011;66172;48.526;8.078;2024-01-06T12:44:06;11.68;;;3.97;;
77191;SDS011;66172;48.526;8.078;2024-01-06T12:46:33;9.70;;;3.80;;
77191;SDS011;66172;48.526;8.078;2024-01-06T12:48:59;9.73;;;4.10;;
77191;SDS011;66172;48.526;8.078;2024-01-06T12:51:25;8.85;;;3.80;;
77191;SDS011;66172;48.526;8.078;2024-01-06T12:53:51;9.25;;;3.85;;
77191;SDS011;66172;48.526;8.078;2024-01-06T12:56:17;8.90;;;4.15;;
77191;SDS011;66172;48.526;8.078;2024-01-06T12:58:43;11.13;;;3.67;;
77191;SDS011;66172;48.526;8.078;2024-01-06T13:01:09;11.43;;;4.47;;
77191;SDS011;66172;48.526;8.078;2024-01-06T13:03:36;11.88;;;5.05;;
77191;SDS011;66172;48.526;8.078;2024-01-06T13:06:02;11.07;;;5.18;;
77191;SDS011;66172;48.526;8.078;2024-01-06T13:08:28;12.70;;;5.70;;
77191;SDS011;66172;48.526;8.078;2024-01-06T13:10:54;13.73;;;6.33;;
77191;SDS011;66172;48.526;8.078;2024-01-06T13:13:21;12.30;;;5.53;;
77191;SDS011;66172;48.526;8.078;2024-01-06T13:15:47;12.57;;;5.75;;
77191;SDS011;66172;48.526;8.078;2024-01-06T13:18:13;11.00;;;5.40;;
77191;SDS011;66172;48.526;8.078;2024-01-06T13:20:39;10.80;;;4.88;;
77191;SDS011;66172;48.526;8.078;2024-01-06T13:23:09;12.80;;;5.67;;
77191;SDS011;66172;48.526;8.078;2024-01-06T13:25:37;8.13;;;3.70;;
77191;SDS011;66172;48.526;8.078;2024-01-06T13:28:05;7.78;;;3.80;;
77191;SDS011;66172;48.526;8.078;2024-01-06T13:30:31;9.02;;;3.70;;
77191;SDS011;66172;48.526;8.078;2024-01-06T13:32:58;9.93;;;3.63;;
77191;SDS011;66172;48.526;8.078;2024-01-06T13:35:24;9.10;;;3.63;;
77191;SDS011;66172;48.526;8.078;2024-01-06T13:37:51;8.15;;;3.63;;
77191;SDS011;66172;48.526;8.078;2024-01-06T13:40:18;9.07;;;3.72;;
77191;SDS011;66172;48.526;8.078;2024-01-06T13:42:54;9.20;;;3.72;;
77191;SDS011;66172;48.526;8.078;2024-01-06T13:45:20;9.20;;;3.67;;
77191;SDS011;66172;48.526;8.078;2024-01-06T13:47:46;7.97;;;3.63;;
77191;SDS011;66172;48.526;8.078;2024-01-06T13:50:12;9.77;;;4.00;;
77191;SDS011;66172;48.526;8.078;2024-01-06T13:52:39;9.93;;;4.15;;
77191;SDS011;66172;48.526;8.078;2024-01-06T13:55:05;9.88;;;4.00;;
77191;SDS011;66172;48.526;8.078;2024-01-06T13:57:32;8.97;;;4.10;;
77191;SDS011;66172;48.526;8.078;2024-01-06T13:59:58;8.30;;;3.67;;
77191;SDS011;66172;48.526;8.078;2024-01-06T14:02:24;11.35;;;4.03;;
77191;SDS011;66172;48.526;8.078;2024-01-06T14:04:50;8.98;;;4.18;;
77191;SDS011;66172;48.526;8.078;2024-01-06T14:07:16;9.82;;;4.28;;
77191;SDS011;66172;48.526;8.078;2024-01-06T14:09:47;9.50;;;3.50;;
77191;SDS011;66172;48.526;8.078;2024-01-06T14:12:13;9.65;;;4.35;;
77191;SDS011;66172;48.526;8.078;2024-01-06T14:14:39;9.55;;;4.55;;
77191;SDS011;66172;48.526;8.078;2024-01-06T14:17:07;8.43;;;4.20;;
77191;SDS011;66172;48.526;8.078;2024-01-06T14:19:33;13.80;;;4.50;;
77191;SDS011;66172;48.526;8.078;2024-01-06T14:21:59;11.00;;;4.43;;
77191;SDS011;66172;48.526;8.078;2024-01-06T14:24:25;9.85;;;4.50;;
77191;SDS011;66172;48.526;8.078;2024-01-06T14:26:52;12.68;;;6.07;;
77191;SDS011;66172;48.526;8.078;2024-01-06T14:29:20;10.43;;;5.25;;
77191;SDS011;66172;48.526;8.078;2024-01-06T14:31:46;10.07;;;4.40;;
77191;SDS011;66172;48.526;8.078;2024-01-06T14:34:12;11.93;;;5.07;;
77191;SDS011;66172;48.526;8.078;2024-01-06T14:36:38;10.82;;;4.47;;
77191;SDS011;66172;48.526;8.078;2024-01-06T14:39:05;11.57;;;4.80;;
77191;SDS011;66172;48.526;8.078;2024-01-06T14:41:32;9.63;;;4.27;;
77191;SDS011;66172;48.526;8.078;2024-01-06T14:43:58;9.48;;;4.47;;
77191;SDS011;66172;48.526;8.078;2024-01-06T14:46:24;10.18;;;4.70;;